Time;durP1;ratioP1;P1;durP2;ratioP2;P2;SDS_P1;SDS_P2;PMS_P1;PMS_P2;Temp;Humidity;BMP_temperature;BMP_pressure;BME280_temperature;BME280_humidity;BME280_pressure;Samples;Min_cycle;Max_cycle;Signal;HPM_P1;HPM_P2
2023/08/27 00:02:40;;;;;;;6.63;2.50;;;17.40;99.90;;;;;;5106058;28;20236;-69
2023/08/27 00:05:29;;;;;;;6.17;2.50;;;17.30;99.90;;;;;;5108026;28;20603;-69
2023/08/27 00:08:17;;;;;;;5.03;2.20;;;17.40;99.90;;;;;;5100784;28;20192;-70
2023/08/27 00:11:05;;;;;;;5.77;2.63;;;17.40;99.90;;;;;;5107790;28;20568;-70
2023/08/27 00:13:52;;;;;;;4.50;2.27;;;17.40;99.90;;;;;;5105362;28;20607;-70
2023/08/27 00:16:39;;;;;;;12.07;2.67;;;17.30;99.90;;;;;;5108174;28;20194;-70
2023/08/27 00:19:27;;;;;;;4.00;2.40;;;17.40;99.90;;;;;;5105401;28;20195;-69
2023/08/27 00:22:15;;;;;;;3.73;2.10;;;17.40;99.90;;;;;;5105178;28;20688;-69
2023/08/27 00:25:03;;;;;;;5.37;2.10;;;17.40;99.90;;;;;;5107629;28;20682;-69
2023/08/27 00:27:50;;;;;;;6.67;2.67;;;17.40;99.90;;;;;;5101479;28;20322;-70
2023/08/27 00:30:37;;;;;;;8.83;2.27;;;17.40;99.90;;;;;;5104237;28;20203;-69
2023/08/27 00:33:24;;;;;;;3.00;1.93;;;17.40;99.90;;;;;;5102734;28;20199;-69
2023/08/27 00:36:11;;;;;;;5.13;2.10;;;17.30;99.90;;;;;;5106825;28;20207;-69
2023/08/27 00:39:00;;;;;;;3.43;2.30;;;17.30;99.90;;;;;;5101897;28;20193;-68
2023/08/27 00:41:47;;;;;;;3.87;2.07;;;17.40;99.90;;;;;;5105048;28;20208;-69
2023/08/27 00:44:34;;;;;;;4.67;1.97;;;17.40;99.90;;;;;;5109851;28;20750;-68
2023/08/27 00:47:21;;;;;;;4.23;1.93;;;17.40;99.90;;;;;;5106377;28;20235;-68
2023/08/27 00:50:09;;;;;;;5.33;1.97;;;17.40;99.90;;;;;;5108749;28;20672;-69
2023/08/27 00:52:56;;;;;;;4.70;2.30;;;17.30;99.90;;;;;;5109869;28;20222;-68
2023/08/27 00:55:45;;;;;;;5.63;2.50;;;17.30;99.90;;;;;;5108593;28;20204;-69
2023/08/27 00:58:32;;;;;;;3.30;1.97;;;17.40;99.90;;;;;;5106900;27;20344;-69
2023/08/27 01:01:20;;;;;;;3.53;2.03;;;17.50;99.90;;;;;;5111722;28;20220;-69
2023/08/27 01:04:07;;;;;;;4.60;2.20;;;17.40;99.90;;;;;;5105103;28;20236;-69
2023/08/27 01:06:55;;;;;;;5.27;2.10;;;17.40;99.90;;;;;;5108914;28;20228;-69
2023/08/27 01:09:46;;;;;;;5.90;2.30;;;17.50;99.90;;;;;;5113290;28;20197;-69
2023/08/27 01:12:43;;;;;;;6.63;2.53;;;17.40;99.90;;;;;;5111351;28;20205;-69
2023/08/27 01:15:30;;;;;;;5.07;2.20;;;17.50;99.90;;;;;;5108363;28;20228;-69
2023/08/27 01:18:17;;;;;;;4.70;2.40;;;17.50;99.90;;;;;;5112851;28;20262;-69
2023/08/27 01:21:22;;;;;;;5.07;2.73;;;17.50;99.90;;;;;;5104405;28;20193;-69
2023/08/27 01:24:09;;;;;;;6.10;2.53;;;17.40;99.90;;;;;;5109174;28;20205;-70
2023/08/27 01:27:00;;;;;;;4.60;2.90;;;17.50;99.90;;;;;;5110993;28;20980;-69
2023/08/27 01:29:51;;;;;;;5.47;2.40;;;17.50;99.90;;;;;;5110615;28;20207;-69
2023/08/27 01:32:40;;;;;;;5.40;3.00;;;17.50;99.90;;;;;;5106773;28;20191;-69
2023/08/27 01:35:27;;;;;;;9.40;2.67;;;17.50;99.90;;;;;;5105751;28;20289;-69
2023/08/27 01:38:16;;;;;;;4.20;2.90;;;17.60;99.90;;;;;;5108763;28;20203;-69
2023/08/27 01:41:03;;;;;;;7.07;3.33;;;17.50;99.90;;;;;;5104889;28;20204;-70
2023/08/27 01:43:50;;;;;;;8.33;3.10;;;17.60;99.90;;;;;;5106690;28;20273;-69
2023/08/27 01:46:37;;;;;;;7.40;2.73;;;17.50;99.90;;;;;;5108228;28;20221;-69
2023/08/27 01:49:24;;;;;;;7.67;3.40;;;17.60;99.90;;;;;;5103930;28;20190;-69
2023/08/27 01:52:11;;;;;;;6.57;3.40;;;17.60;99.90;;;;;;5104231;28;20222;-69
2023/08/27 01:55:00;;;;;;;5.57;2.93;;;17.50;99.90;;;;;;5107902;28;20207;-69
2023/08/27 01:57:47;;;;;;;7.27;3.13;;;17.60;99.90;;;;;;5104871;28;20202;-70
2023/08/27 02:00:34;;;;;;;4.47;3.23;;;17.60;99.90;;;;;;5101133;28;20269;-70
2023/08/27 02:03:22;;;;;;;8.10;3.50;;;17.60;99.90;;;;;;5105168;28;20283;-69
2023/08/27 02:06:09;;;;;;;4.47;3.03;;;17.50;99.90;;;;;;5106204;28;20692;-69
2023/08/27 02:08:56;;;;;;;4.30;2.97;;;17.40;99.90;;;;;;5108800;28;20206;-70
2023/08/27 02:11:45;;;;;;;6.10;3.37;;;17.40;99.90;;;;;;5105993;28;20189;-69
2023/08/27 02:14:32;;;;;;;5.27;3.30;;;17.40;99.90;;;;;;5100215;28;20234;-69
2023/08/27 02:17:19;;;;;;;4.83;3.40;;;17.30;99.90;;;;;;5103628;28;20192;-69
2023/08/27 02:20:09;;;;;;;8.13;3.70;;;17.40;99.90;;;;;;5104990;28;20205;-69
2023/08/27 02:22:56;;;;;;;8.10;3.37;;;17.40;99.90;;;;;;5107432;28;20204;-69
2023/08/27 02:25:43;;;;;;;4.63;3.20;;;17.40;99.90;;;;;;5106615;28;20209;-69
2023/08/27 02:28:33;;;;;;;6.03;3.57;;;17.40;99.90;;;;;;5101306;28;20206;-69
2023/08/27 02:31:20;;;;;;;4.17;3.03;;;17.40;99.90;;;;;;5103020;28;20204;-69
2023/08/27 02:34:07;;;;;;;9.37;3.37;;;17.40;99.90;;;;;;5106400;28;20197;-69
2023/08/27 02:36:54;;;;;;;88.53;5.17;;;17.40;99.90;;;;;;5107367;28;20198;-70
2023/08/27 02:39:41;;;;;;;51.43;4.57;;;17.30;99.90;;;;;;5105696;28;20243;-69
2023/08/27 02:42:29;;;;;;;4.07;3.20;;;17.20;99.90;;;;;;5102484;28;20603;-69
2023/08/27 02:45:19;;;;;;;4.13;3.40;;;17.20;99.90;;;;;;5104945;28;20197;-70
2023/08/27 02:48:07;;;;;;;6.07;3.67;;;17.20;99.90;;;;;;5102925;28;20275;-69
2023/08/27 02:50:54;;;;;;;4.37;3.33;;;17.20;99.90;;;;;;5109209;28;20205;-69
2023/08/27 02:53:41;;;;;;;10.27;3.23;;;17.20;99.90;;;;;;5108740;28;20654;-69
2023/08/27 02:56:28;;;;;;;10.33;3.03;;;17.20;99.90;;;;;;5104818;28;20224;-69
2023/08/27 02:59:15;;;;;;;7.20;3.53;;;17.20;99.90;;;;;;5102732;28;20203;-69
2023/08/27 03:02:04;;;;;;;10.43;3.67;;;17.10;99.90;;;;;;5106216;28;20662;-69
2023/08/27 03:04:51;;;;;;;5.53;3.53;;;17.10;99.90;;;;;;5103789;28;20894;-69
2023/08/27 03:07:38;;;;;;;9.07;3.60;;;17.10;99.90;;;;;;5105976;28;20212;-69
2023/08/27 03:10:26;;;;;;;6.93;3.93;;;17.10;99.90;;;;;;5103944;28;20669;-68
2023/08/27 03:13:13;;;;;;;281.70;9.07;;;17.10;99.90;;;;;;5105703;28;20311;-69
2023/08/27 03:16:00;;;;;;;173.23;6.63;;;17.00;99.90;;;;;;5103928;28;20200;-69
2023/08/27 03:18:49;;;;;;;93.77;5.00;;;17.00;99.90;;;;;;5104197;28;20209;-69
2023/08/27 03:21:36;;;;;;;38.90;4.20;;;16.80;99.90;;;;;;5103777;28;20277;-69
2023/08/27 03:24:23;;;;;;;7.90;3.37;;;16.80;99.90;;;;;;5103277;28;20225;-69
2023/08/27 03:27:10;;;;;;;8.33;4.00;;;16.80;99.90;;;;;;5104927;28;20217;-69
2023/08/27 03:29:57;;;;;;;9.03;3.93;;;16.90;99.90;;;;;;5104589;28;20267;-69
2023/08/27 03:32:45;;;;;;;10.47;3.57;;;17.00;99.90;;;;;;5100200;28;20322;-69
2023/08/27 03:35:33;;;;;;;8.17;3.10;;;17.00;99.90;;;;;;5104555;28;20495;-69
2023/08/27 03:38:21;;;;;;;7.30;3.40;;;17.00;99.90;;;;;;5101105;28;20201;-69
2023/08/27 03:41:08;;;;;;;6.50;3.10;;;17.00;99.90;;;;;;5101215;28;20691;-69
2023/08/27 03:43:55;;;;;;;5.97;3.10;;;17.10;99.90;;;;;;5109443;28;20211;-70
2023/08/27 03:46:42;;;;;;;9.70;4.10;;;17.00;99.90;;;;;;5108487;28;20701;-69
2023/08/27 03:49:29;;;;;;;8.23;4.40;;;17.10;99.90;;;;;;5098949;28;20200;-69
2023/08/27 03:52:18;;;;;;;9.50;3.60;;;17.10;99.90;;;;;;5102350;28;20719;-69
2023/08/27 03:55:06;;;;;;;34.67;4.03;;;17.10;99.90;;;;;;5102337;28;20210;-70
2023/08/27 03:57:53;;;;;;;7.90;3.13;;;17.00;99.90;;;;;;5106411;28;20207;-69
2023/08/27 04:00:40;;;;;;;9.53;3.27;;;16.90;99.90;;;;;;5105216;28;20289;-69
2023/08/27 04:03:27;;;;;;;11.43;3.30;;;16.90;99.90;;;;;;5104762;28;20570;-70
2023/08/27 04:06:15;;;;;;;9.27;3.23;;;17.00;99.90;;;;;;5105362;28;20196;-69
2023/08/27 04:09:04;;;;;;;12.00;3.00;;;17.10;99.90;;;;;;5102264;28;20556;-70
2023/08/27 04:11:52;;;;;;;8.97;2.80;;;17.20;99.90;;;;;;5103421;28;20232;-70
2023/08/27 04:14:39;;;;;;;6.33;2.50;;;17.30;99.90;;;;;;5103658;28;20230;-69
2023/08/27 04:17:26;;;;;;;5.43;2.70;;;17.30;99.90;;;;;;5105199;28;20556;-68
2023/08/27 04:20:13;;;;;;;5.93;2.50;;;17.30;99.90;;;;;;5109999;28;20276;-70
2023/08/27 04:23:01;;;;;;;5.67;2.80;;;17.40;99.90;;;;;;5108705;28;20194;-70
2023/08/27 04:25:49;;;;;;;5.17;2.73;;;17.40;99.90;;;;;;5107121;28;20199;-69
2023/08/27 04:28:37;;;;;;;8.37;3.10;;;17.50;99.90;;;;;;5109330;28;20204;-69
2023/08/27 04:31:25;;;;;;;4.97;3.03;;;17.50;99.90;;;;;;5111195;28;20564;-70
2023/08/27 04:34:12;;;;;;;5.53;3.20;;;17.50;99.90;;;;;;5107527;28;20241;-69
2023/08/27 04:37:00;;;;;;;9.60;3.43;;;17.50;99.90;;;;;;5111531;28;20202;-69
2023/08/27 04:39:48;;;;;;;9.07;3.53;;;17.40;99.90;;;;;;5111054;28;20206;-69
2023/08/27 04:42:36;;;;;;;7.07;3.23;;;17.40;99.90;;;;;;5111844;27;20197;-69
2023/08/27 04:45:24;;;;;;;7.47;3.97;;;17.50;99.90;;;;;;5110643;28;20210;-69
2023/08/27 04:48:11;;;;;;;10.93;4.03;;;17.40;99.90;;;;;;5103627;28;20221;-70
2023/08/27 04:50:58;;;;;;;8.10;3.97;;;17.60;99.90;;;;;;5111548;28;20209;-70
2023/08/27 04:53:46;;;;;;;6.63;4.13;;;17.60;99.90;;;;;;5111412;28;20200;-69
2023/08/27 04:56:33;;;;;;;7.13;4.00;;;17.70;99.90;;;;;;5111866;28;20198;-69
2023/08/27 04:59:21;;;;;;;9.03;3.70;;;17.70;99.90;;;;;;5109166;28;20541;-69
2023/08/27 05:02:09;;;;;;;5.50;3.57;;;17.80;99.90;;;;;;5105479;28;20689;-69
2023/08/27 05:04:56;;;;;;;4.90;3.13;;;17.90;99.90;;;;;;5106093;28;20208;-69
2023/08/27 05:07:43;;;;;;;5.97;3.37;;;17.90;99.90;;;;;;5111503;28;20217;-69
2023/08/27 05:10:30;;;;;;;10.43;4.47;;;17.90;99.90;;;;;;5108530;28;20206;-70
2023/08/27 05:13:18;;;;;;;9.00;3.93;;;18.00;99.90;;;;;;5108040;28;20681;-69
2023/08/27 05:16:06;;;;;;;6.80;3.70;;;18.20;99.90;;;;;;5106302;28;20236;-69
2023/08/27 05:18:53;;;;;;;7.70;4.00;;;18.20;99.90;;;;;;5110176;28;20209;-69
2023/08/27 05:21:41;;;;;;;6.20;3.67;;;18.20;99.90;;;;;;5110415;28;20214;-69
2023/08/27 05:24:28;;;;;;;6.73;3.50;;;18.30;99.90;;;;;;5108081;28;20758;-68
2023/08/27 05:27:15;;;;;;;6.93;4.27;;;18.40;99.90;;;;;;5105757;28;20264;-69
2023/08/27 05:30:04;;;;;;;9.60;3.83;;;18.30;99.90;;;;;;5107099;28;20222;-69
2023/08/27 05:32:53;;;;;;;8.33;3.80;;;18.40;99.90;;;;;;5106058;28;20270;-68
2023/08/27 05:35:42;;;;;;;7.47;3.77;;;18.50;99.90;;;;;;5104100;28;20325;-69
2023/08/27 05:38:29;;;;;;;8.50;3.53;;;18.60;99.90;;;;;;5108025;28;20306;-68
2023/08/27 05:41:16;;;;;;;6.40;3.77;;;18.60;99.90;;;;;;5107045;28;20206;-69
2023/08/27 05:44:04;;;;;;;4.97;3.50;;;18.80;99.90;;;;;;5105353;28;20237;-70
2023/08/27 05:46:51;;;;;;;5.37;3.37;;;18.90;99.90;;;;;;5107964;28;20296;-70
2023/08/27 05:49:40;;;;;;;6.83;3.60;;;19.00;99.90;;;;;;5107057;28;20199;-70
2023/08/27 05:52:27;;;;;;;7.17;3.17;;;19.20;99.90;;;;;;5100779;28;20222;-69
2023/08/27 05:55:14;;;;;;;6.20;3.37;;;19.30;99.90;;;;;;4718669;27;534545;-70
2023/08/27 05:58:03;;;;;;;6.57;3.33;;;19.30;99.90;;;;;;4457369;27;659426;-70
2023/08/27 06:00:53;;;;;;;4.73;3.30;;;18.90;99.90;;;;;;4442890;27;659226;-70
2023/08/27 06:03:40;;;;;;;7.00;3.30;;;19.10;99.90;;;;;;4441789;27;659447;-70
2023/08/27 06:06:29;;;;;;;7.13;3.90;;;19.10;99.90;;;;;;4450483;28;658897;-69
2023/08/27 06:09:17;;;;;;;5.97;3.97;;;19.20;99.90;;;;;;4459415;27;658923;-71
2023/08/27 06:12:06;;;;;;;7.07;4.43;;;19.10;99.90;;;;;;4441959;27;658727;-70
2023/08/27 06:14:53;;;;;;;9.27;4.97;;;19.20;99.90;;;;;;4438379;27;658602;-70
2023/08/27 06:17:40;;;;;;;8.47;4.80;;;19.30;99.90;;;;;;4462754;27;659812;-71
2023/08/27 06:20:28;;;;;;;7.85;4.40;;;19.30;99.90;;;;;;4440823;27;658582;-69
2023/08/27 06:23:16;;;;;;;10.23;4.30;;;19.50;99.90;;;;;;4458889;27;660248;-70
2023/08/27 06:26:03;;;;;;;8.13;4.67;;;19.50;99.90;;;;;;4442570;27;660488;-71
2023/08/27 06:28:51;;;;;;;7.60;4.63;;;19.70;99.90;;;;;;4460958;28;660805;-71
2023/08/27 06:31:39;;;;;;;7.50;4.10;;;19.70;99.90;;;;;;4442927;27;658403;-70
2023/08/27 06:34:26;;;;;;;13.70;4.50;;;19.80;99.90;;;;;;4459948;27;658417;-71
2023/08/27 06:37:14;;;;;;;12.57;4.47;;;19.90;99.90;;;;;;4434297;27;659841;-71
2023/08/27 06:40:02;;;;;;;8.83;5.43;;;20.10;99.90;;;;;;4447160;27;659791;-71
2023/08/27 06:42:50;;;;;;;6.18;4.70;;;20.30;99.90;;;;;;4437371;28;659112;-71
2023/08/27 06:45:37;;;;;;;8.37;5.73;;;20.30;99.90;;;;;;4439986;28;658534;-71
2023/08/27 06:48:24;;;;;;;10.30;5.80;;;20.40;99.90;;;;;;4430808;27;659510;-71
2023/08/27 06:51:11;;;;;;;9.07;5.93;;;20.40;99.90;;;;;;4457279;27;660243;-70
2023/08/27 06:53:58;;;;;;;8.67;6.10;;;20.30;99.90;;;;;;4442263;28;658543;-71
2023/08/27 06:56:47;;;;;;;11.17;6.20;;;20.30;99.90;;;;;;4455832;28;659553;-70
2023/08/27 06:59:34;;;;;;;12.07;6.97;;;20.40;99.90;;;;;;4435583;28;660682;-71
2023/08/27 07:02:22;;;;;;;11.00;6.00;;;20.50;99.90;;;;;;4456914;27;660213;-71
2023/08/27 07:05:09;;;;;;;10.03;6.63;;;20.50;99.90;;;;;;4436803;27;661899;-71
2023/08/27 07:07:56;;;;;;;11.73;6.90;;;20.40;99.90;;;;;;4455310;28;659994;-71
2023/08/27 07:10:44;;;;;;;9.70;6.47;;;20.40;99.90;;;;;;4434716;27;659937;-72
2023/08/27 07:13:32;;;;;;;8.83;6.40;;;20.40;99.90;;;;;;4455960;27;659042;-69
2023/08/27 07:16:20;;;;;;;12.20;7.03;;;20.50;99.90;;;;;;4429924;27;659735;-69
2023/08/27 07:19:08;;;;;;;13.83;7.27;;;20.50;99.90;;;;;;4435044;28;659518;-69
2023/08/27 07:21:55;;;;;;;12.00;6.53;;;20.40;99.90;;;;;;4461094;27;660890;-69
2023/08/27 07:24:43;;;;;;;9.57;7.17;;;20.60;99.90;;;;;;4451686;28;660531;-68
2023/08/27 07:27:30;;;;;;;16.17;7.60;;;20.50;99.90;;;;;;4455665;27;659544;-69
2023/08/27 07:30:19;;;;;;;10.60;7.80;;;20.30;99.90;;;;;;4450660;27;660125;-69
2023/08/27 07:33:06;;;;;;;12.00;7.87;;;20.30;99.90;;;;;;4452404;27;660967;-70
2023/08/27 07:35:53;;;;;;;14.00;8.00;;;20.30;99.90;;;;;;4432405;27;659440;-69
2023/08/27 07:38:41;;;;;;;12.37;8.53;;;20.50;99.90;;;;;;4454161;27;660696;-70
2023/08/27 07:41:28;;;;;;;13.67;9.53;;;20.50;99.90;;;;;;4435776;28;659809;-70
2023/08/27 07:44:15;;;;;;;13.53;9.07;;;20.60;99.90;;;;;;4454921;27;661657;-70
2023/08/27 07:47:05;;;;;;;16.27;9.70;;;20.30;99.90;;;;;;4431876;28;659879;-69
2023/08/27 07:49:52;;;;;;;15.50;9.43;;;20.30;99.90;;;;;;4454533;28;660063;-69
2023/08/27 07:52:39;;;;;;;13.57;9.33;;;20.50;99.90;;;;;;4433853;28;660327;-69
2023/08/27 07:55:27;;;;;;;15.40;10.53;;;20.60;99.90;;;;;;4461533;28;660300;-69
2023/08/27 07:58:14;;;;;;;14.53;10.70;;;20.70;99.90;;;;;;4427331;28;661583;-69
2023/08/27 08:01:02;;;;;;;14.23;10.60;;;20.60;99.90;;;;;;4452536;28;661918;-70
2023/08/27 08:03:51;;;;;;;15.90;10.30;;;20.70;99.90;;;;;;4430171;28;662243;-69
2023/08/27 08:06:38;;;;;;;15.67;10.63;;;20.90;99.90;;;;;;4429043;28;661085;-69
2023/08/27 08:09:25;;;;;;;17.97;11.47;;;21.00;99.90;;;;;;4458079;27;660380;-69
2023/08/27 08:12:13;;;;;;;17.00;12.00;;;20.90;99.90;;;;;;4430414;28;661153;-69
2023/08/27 08:15:00;;;;;;;18.17;11.90;;;21.20;99.90;;;;;;4447449;28;661686;-70
2023/08/27 08:17:48;;;;;;;17.67;11.60;;;21.30;99.90;;;;;;4430988;28;660682;-69
2023/08/27 08:20:36;;;;;;;22.47;12.40;;;21.30;99.90;;;;;;4451297;27;661482;-69
2023/08/27 08:23:23;;;;;;;17.03;12.20;;;21.30;99.90;;;;;;4434798;27;661043;-69
2023/08/27 08:26:11;;;;;;;16.67;11.30;;;21.30;99.90;;;;;;4458200;27;662519;-69
2023/08/27 08:28:58;;;;;;;15.40;12.20;;;21.40;99.90;;;;;;4428821;27;660807;-69
2023/08/27 08:31:45;;;;;;;17.37;11.37;;;21.40;99.90;;;;;;4458939;27;662122;-70
2023/08/27 08:34:33;;;;;;;18.43;12.00;;;21.50;99.90;;;;;;4441046;28;661632;-69
2023/08/27 08:37:21;;;;;;;18.17;11.47;;;21.40;99.90;;;;;;4454113;28;661859;-70
2023/08/27 08:40:10;;;;;;;16.13;11.53;;;21.50;99.90;;;;;;4437845;28;661008;-70
2023/08/27 08:42:59;;;;;;;13.83;10.07;;;21.80;99.90;;;;;;4430312;27;660462;-69
2023/08/27 08:45:53;;;;;;;16.40;10.37;;;22.00;99.90;;;;;;4453635;27;661796;-70
2023/08/27 08:48:42;;;;;;;17.27;11.83;;;22.10;99.90;;;;;;4433099;28;661348;-69
2023/08/27 08:51:29;;;;;;;16.00;10.87;;;21.70;99.90;;;;;;4431941;28;661009;-69
2023/08/27 08:54:17;;;;;;;13.07;9.40;;;21.50;99.90;;;;;;4454800;28;660865;-70
2023/08/27 08:57:05;;;;;;;15.87;10.60;;;21.50;99.90;;;;;;4429360;28;659915;-70
2023/08/27 08:59:52;;;;;;;15.20;10.37;;;21.30;99.90;;;;;;4442717;28;662246;-69
2023/08/27 09:02:40;;;;;;;15.53;10.17;;;21.50;99.90;;;;;;4455084;27;660846;-69
2023/08/27 09:05:28;;;;;;;16.37;10.23;;;21.80;99.90;;;;;;4452518;27;661055;-69
2023/08/27 09:08:15;;;;;;;15.17;10.20;;;22.00;99.90;;;;;;4459160;27;662587;-69
2023/08/27 09:11:04;;;;;;;15.70;9.20;;;22.10;99.90;;;;;;4450531;27;660921;-68
2023/08/27 09:13:51;;;;;;;12.17;9.90;;;22.30;99.90;;;;;;4457792;27;659516;-69
2023/08/27 09:16:38;;;;;;;12.93;9.53;;;22.40;99.90;;;;;;4436320;27;660512;-69
2023/08/27 09:19:25;;;;;;;13.83;9.37;;;22.50;99.90;;;;;;4459757;27;660608;-69
2023/08/27 09:22:13;;;;;;;12.80;9.83;;;22.30;99.90;;;;;;4435716;27;659819;-68
2023/08/27 09:25:00;;;;;;;13.30;9.53;;;22.30;99.90;;;;;;4449434;27;661406;-69
2023/08/27 09:27:49;;;;;;;13.77;10.00;;;22.40;99.90;;;;;;4453019;27;660196;-68
2023/08/27 09:30:36;;;;;;;16.13;10.33;;;22.20;99.90;;;;;;4457615;27;661252;-69
2023/08/27 09:33:35;;;;;;;15.77;10.93;;;22.30;99.90;;;;;;4443209;27;660491;-68
2023/08/27 09:36:22;;;;;;;16.53;11.77;;;22.00;99.90;;;;;;4425928;28;661162;-69
2023/08/27 09:39:11;;;;;;;15.10;11.37;;;22.20;99.90;;;;;;4445951;28;661490;-69
2023/08/27 09:41:59;;;;;;;23.30;13.83;;;22.10;99.90;;;;;;4426231;28;661508;-69
2023/08/27 09:44:51;;;;;;;19.65;15.65;;;22.50;99.90;;;;;;4450369;27;661232;-69
2023/08/27 09:47:40;;;;;;;18.73;13.55;;;22.70;99.90;;;;;;4420812;27;661548;-69
2023/08/27 09:50:28;;;;;;;17.43;13.47;;;22.60;99.90;;;;;;4444897;27;661622;-68
2023/08/27 09:53:15;;;;;;;17.27;13.00;;;22.70;99.90;;;;;;4462501;27;662312;-69
2023/08/27 09:56:05;;;;;;;18.03;13.80;;;22.60;99.90;;;;;;4443314;27;661203;-68
2023/08/27 09:58:53;;;;;;;17.40;13.05;;;22.70;99.90;;;;;;4460359;28;660361;-68
2023/08/27 10:01:41;;;;;;;17.27;13.67;;;22.70;99.90;;;;;;4460445;28;661616;-69
2023/08/27 10:04:28;;;;;;;18.13;13.13;;;22.50;99.90;;;;;;4441366;28;660969;-69
2023/08/27 10:07:16;;;;;;;18.23;13.83;;;22.60;99.90;;;;;;4444688;28;661859;-69
2023/08/27 10:10:04;;;;;;;21.00;14.30;;;22.70;99.90;;;;;;4443258;27;660639;-69
2023/08/27 10:12:52;;;;;;;17.10;13.83;;;22.70;99.90;;;;;;4462429;27;661023;-69
2023/08/27 10:15:39;;;;;;;17.67;14.60;;;22.60;99.90;;;;;;4443375;27;661612;-69
2023/08/27 10:18:28;;;;;;;20.33;15.70;;;22.70;99.90;;;;;;4462212;27;661170;-69
2023/08/27 10:21:15;;;;;;;23.77;16.03;;;22.90;99.90;;;;;;4439728;27;661288;-69
2023/08/27 10:24:03;;;;;;;23.33;15.77;;;23.00;99.90;;;;;;4444073;27;662007;-69
2023/08/27 10:26:51;;;;;;;20.57;16.13;;;22.70;99.90;;;;;;4461321;27;661370;-69
2023/08/27 10:29:40;;;;;;;20.73;16.60;;;22.70;99.90;;;;;;4442847;27;660790;-69
2023/08/27 10:32:27;;;;;;;22.80;16.83;;;22.80;99.90;;;;;;4435897;28;661747;-69
2023/08/27 10:35:16;;;;;;;23.83;16.23;;;23.00;99.90;;;;;;4457663;28;661223;-69
2023/08/27 10:38:04;;;;;;;23.80;16.70;;;23.20;99.90;;;;;;4442030;27;661376;-69
2023/08/27 10:40:51;;;;;;;23.15;15.93;;;23.40;99.90;;;;;;4459722;27;661176;-69
2023/08/27 10:43:38;;;;;;;21.33;16.63;;;22.90;99.90;;;;;;4443391;28;660818;-69
2023/08/27 10:46:26;;;;;;;21.85;15.70;;;22.80;99.90;;;;;;4444516;28;662095;-69
2023/08/27 10:49:16;;;;;;;18.65;15.13;;;23.40;99.90;;;;;;4424245;28;660909;-69
2023/08/27 10:52:15;;;;;;;19.00;14.65;;;23.80;99.90;;;;;;4424203;28;660922;-69
2023/08/27 10:55:03;;;;;;;17.30;13.98;;;23.80;99.90;;;;;;4409426;28;660770;-69
2023/08/27 10:57:50;;;;;;;18.60;13.38;;;23.60;99.90;;;;;;4441313;28;663074;-69
2023/08/27 11:01:01;;;;;;;17.35;13.30;;;23.20;99.90;;;;;;4434764;28;660722;-68
2023/08/27 11:03:52;;;;;;;15.95;13.55;;;23.40;99.90;;;;;;4397749;28;661404;-69
2023/08/27 11:06:43;;;;;;;23.15;14.13;;;23.40;99.90;;;;;;4424903;28;661588;-69
2023/08/27 11:09:32;;;;;;;18.98;14.45;;;23.20;99.90;;;;;;4424550;28;661423;-70
2023/08/27 11:12:24;;;;;;;19.10;15.07;;;23.10;99.90;;;;;;4424437;28;660808;-69
2023/08/27 11:15:12;;;;;;;17.83;13.85;;;23.10;99.90;;;;;;4424570;28;660749;-70
2023/08/27 11:18:00;;;;;;;16.73;14.48;;;23.10;99.90;;;;;;4420657;28;661850;-69
2023/08/27 11:20:48;;;;;;;18.48;14.77;;;23.20;99.90;;;;;;4429615;28;661411;-69
2023/08/27 11:23:37;;;;;;;22.35;14.25;;;23.30;99.90;;;;;;4443525;28;661727;-69
2023/08/27 11:26:26;;;;;;;19.90;14.98;;;23.40;99.90;;;;;;4424457;28;662127;-69
2023/08/27 11:29:13;;;;;;;21.50;15.20;;;23.60;99.90;;;;;;4423626;28;662172;-69
2023/08/27 11:32:02;;;;;;;20.95;15.82;;;23.90;99.90;;;;;;4445447;28;660786;-69
2023/08/27 11:34:50;;;;;;;20.27;15.45;;;24.00;99.90;;;;;;4432188;28;662926;-70
2023/08/27 11:37:38;;;;;;;20.85;15.75;;;24.30;99.90;;;;;;4442203;28;661056;-68
2023/08/27 11:40:26;;;;;;;19.23;14.70;;;24.80;99.90;;;;;;4461029;27;661388;-70
2023/08/27 11:43:15;;;;;;;19.40;15.45;;;25.00;99.90;;;;;;4441656;28;660977;-69
2023/08/27 11:46:03;;;;;;;22.55;15.70;;;25.30;99.90;;;;;;4460513;27;660482;-69
2023/08/27 11:48:50;;;;;;;20.55;14.88;;;25.50;99.90;;;;;;4460981;27;661606;-69
2023/08/27 11:51:38;;;;;;;20.30;15.07;;;25.30;99.90;;;;;;4440806;27;661249;-68
2023/08/27 11:54:28;;;;;;;20.52;15.57;;;24.90;99.90;;;;;;4460917;27;662104;-69
2023/08/27 11:57:15;;;;;;;18.83;14.88;;;24.40;99.90;;;;;;4437815;27;662079;-69
2023/08/27 12:00:11;;;;;;;19.80;15.68;;;24.50;99.90;;;;;;4441636;27;660747;-69
2023/08/27 12:02:59;;;;;;;20.85;15.70;;;24.80;99.90;;;;;;4414979;27;661060;-69
2023/08/27 12:05:46;;;;;;;18.02;15.32;;;24.60;99.90;;;;;;4464100;27;661116;-69
2023/08/27 12:08:36;;;;;;;20.83;15.02;;;24.80;99.90;;;;;;4441245;27;661544;-70
2023/08/27 12:11:25;;;;;;;19.60;15.73;;;24.90;99.90;;;;;;4440899;27;661031;-69
2023/08/27 12:14:12;;;;;;;20.20;15.73;;;25.30;99.90;;;;;;4444073;27;660588;-69
2023/08/27 12:17:07;;;;;;;19.23;14.73;;;25.70;99.90;;;;;;4460470;27;662284;-69
2023/08/27 12:19:54;;;;;;;18.10;14.43;;;26.00;99.90;;;;;;4414505;27;662285;-69
2023/08/27 12:22:43;;;;;;;18.83;14.23;;;26.20;99.90;;;;;;4460356;27;661732;-69
2023/08/27 12:25:30;;;;;;;16.67;13.77;;;26.30;99.90;;;;;;4437407;27;661352;-69
2023/08/27 12:28:18;;;;;;;18.92;13.15;;;26.30;99.90;;;;;;4446609;27;660852;-69
2023/08/27 12:31:05;;;;;;;17.25;13.55;;;26.20;99.90;;;;;;4460459;27;661764;-69
2023/08/27 12:33:59;;;;;;;19.63;13.50;;;26.10;99.90;;;;;;4441339;28;660876;-69
2023/08/27 12:36:46;;;;;;;17.13;12.82;;;26.00;99.90;;;;;;4437702;28;661169;-70
2023/08/27 12:39:34;;;;;;;17.50;13.27;;;25.90;99.90;;;;;;4444026;27;661218;-69
2023/08/27 12:42:23;;;;;;;17.52;13.50;;;25.60;99.90;;;;;;4464041;27;661869;-69
2023/08/27 12:45:10;;;;;;;16.57;13.37;;;25.50;99.90;;;;;;4428939;28;661632;-70
2023/08/27 12:47:59;;;;;;;22.10;14.50;;;25.30;99.90;;;;;;4430170;28;660967;-69
2023/08/27 12:50:48;;;;;;;17.05;13.93;;;24.70;99.90;;;;;;4445900;28;661467;-70
2023/08/27 12:53:35;;;;;;;18.10;14.02;;;24.60;99.90;;;;;;4422743;28;661560;-70
2023/08/27 12:56:22;;;;;;;20.88;14.55;;;24.50;99.90;;;;;;4436396;28;660739;-69
2023/08/27 12:59:10;;;;;;;19.08;15.55;;;24.60;99.90;;;;;;4448452;28;661347;-70
2023/08/27 13:01:57;;;;;;;19.67;14.73;;;24.60;99.90;;;;;;4436958;28;661246;-69
2023/08/27 13:04:45;;;;;;;16.60;13.32;;;24.60;99.90;;;;;;4445610;28;661852;-69
2023/08/27 13:07:34;;;;;;;22.08;14.38;;;24.60;99.90;;;;;;4443143;28;660900;-69
2023/08/27 13:10:21;;;;;;;17.05;13.95;;;24.90;99.90;;;;;;4444987;28;661776;-70
2023/08/27 13:13:08;;;;;;;17.55;13.43;;;25.50;99.90;;;;;;4426270;28;661140;-69
2023/08/27 13:15:56;;;;;;;16.58;13.70;;;26.00;99.90;;;;;;4445102;28;661479;-70
2023/08/27 13:18:43;;;;;;;16.80;12.82;;;26.30;99.90;;;;;;4426353;28;660860;-70
2023/08/27 13:21:30;;;;;;;17.50;13.27;;;26.90;99.90;;;;;;4449833;28;661485;-69
2023/08/27 13:24:20;;;;;;;15.90;13.48;;;27.00;99.90;;;;;;4431105;28;661000;-70
2023/08/27 13:27:08;;;;;;;16.48;13.10;;;27.40;99.90;;;;;;4427872;28;660681;-69
2023/08/27 13:29:55;;;;;;;14.68;12.52;;;27.90;99.90;;;;;;4454221;27;661655;-69
2023/08/27 13:32:42;;;;;;;17.00;12.25;;;28.00;99.90;;;;;;4460023;27;660702;-69
2023/08/27 13:35:30;;;;;;;15.88;13.13;;;28.00;99.90;;;;;;4463368;27;661194;-69
2023/08/27 13:38:17;;;;;;;17.45;13.35;;;27.80;99.90;;;;;;4460457;27;660932;-69
2023/08/27 13:41:07;;;;;;;16.88;13.25;;;27.40;99.90;;;;;;4462875;27;661668;-69
2023/08/27 13:43:55;;;;;;;20.17;13.50;;;27.20;99.90;;;;;;4443842;27;661022;-69
2023/08/27 13:46:43;;;;;;;16.77;13.43;;;27.40;99.90;;;;;;4431584;28;661117;-69
2023/08/27 13:49:30;;;;;;;16.85;12.85;;;27.30;99.90;;;;;;4444557;28;662314;-69
2023/08/27 13:52:18;;;;;;;18.65;13.13;;;27.60;99.90;;;;;;4437870;28;661323;-69
2023/08/27 13:55:06;;;;;;;16.17;12.35;;;28.00;99.90;;;;;;4426208;28;662228;-68
2023/08/27 13:57:55;;;;;;;24.05;12.85;;;27.80;99.90;;;;;;4425642;28;661275;-69
2023/08/27 14:00:44;;;;;;;18.45;13.70;;;27.40;99.90;;;;;;4435763;28;661228;-69
2023/08/27 14:03:31;;;;;;;17.98;13.88;;;27.20;99.90;;;;;;4440488;28;660998;-69
2023/08/27 14:06:19;;;;;;;16.05;12.88;;;26.90;99.90;;;;;;4425803;28;660680;-69
2023/08/27 14:09:06;;;;;;;18.98;13.85;;;26.70;99.90;;;;;;4445091;28;661176;-69
2023/08/27 14:11:53;;;;;;;18.90;13.32;;;26.70;99.90;;;;;;4422303;28;661145;-69
2023/08/27 14:14:42;;;;;;;16.05;13.77;;;26.50;99.90;;;;;;4445320;28;661072;-69
2023/08/27 14:17:29;;;;;;;18.33;13.85;;;26.10;99.90;;;;;;4425926;28;660654;-69